createdAt,value
2023-09-07T00:00:30.839Z,51.323460
2023-09-07T00:01:30.886Z,51.323460
2023-09-07T00:02:39.042Z,51.323441
2023-09-07T00:03:32.897Z,51.323406
2023-09-07T00:04:30.817Z,51.323441
2023-09-07T00:05:30.743Z,51.323437
2023-09-07T00:06:30.695Z,51.323444
2023-09-07T00:07:30.764Z,51.323456
2023-09-07T00:08:30.830Z,51.323463
2023-09-07T00:09:30.667Z,51.323460
2023-09-07T00:10:30.638Z,51.323437
2023-09-07T00:11:30.594Z,51.323448
2023-09-07T00:12:30.570Z,51.323456
2023-09-07T00:13:30.562Z,51.323452
2023-09-07T00:14:30.567Z,51.323452
2023-09-07T00:15:30.521Z,51.323429
2023-09-07T00:16:30.556Z,51.323418
2023-09-07T00:17:30.503Z,51.323414
2023-09-07T00:18:30.767Z,51.323460
2023-09-07T00:19:30.471Z,51.323437
2023-09-07T00:20:30.419Z,51.323429
2023-09-07T00:21:30.397Z,51.323475
2023-09-07T00:22:30.415Z,51.323444
2023-09-07T00:23:30.389Z,51.323448
2023-09-07T00:24:30.330Z,51.323444
2023-09-07T00:25:30.366Z,51.323421
2023-09-07T00:26:30.292Z,51.323444
2023-09-07T00:27:30.277Z,51.323437
2023-09-07T00:28:30.588Z,51.323425
2023-09-07T00:29:30.238Z,51.323441
2023-09-07T00:30:30.218Z,51.323479
2023-09-07T00:31:30.267Z,51.323418
2023-09-07T00:32:30.233Z,51.323456
2023-09-07T00:33:30.173Z,51.323433
2023-09-07T00:34:30.177Z,51.323414
2023-09-07T00:35:30.114Z,51.323433
2023-09-07T00:36:30.102Z,51.323448
2023-09-07T00:37:30.157Z,51.323441
2023-09-07T00:38:30.273Z,51.323433
2023-09-07T00:39:30.030Z,51.323425
2023-09-07T00:40:30.068Z,51.323437
2023-09-07T00:41:29.990Z,51.323429
2023-09-07T00:42:30.014Z,51.323421
2023-09-07T00:43:29.971Z,51.323452
2023-09-07T00:44:29.955Z,51.323433
2023-09-07T00:45:29.909Z,51.323471
2023-09-07T00:46:29.920Z,51.323429
2023-09-07T00:47:29.947Z,51.323437
2023-09-07T00:48:30.130Z,51.323441
2023-09-07T00:49:29.842Z,51.323433
2023-09-07T00:50:29.810Z,51.323421
2023-09-07T00:51:29.818Z,51.323414
2023-09-07T00:52:29.779Z,51.323425
2023-09-07T00:53:29.744Z,51.323429
2023-09-07T00:54:29.727Z,51.323418
2023-09-07T00:55:29.708Z,51.323410
2023-09-07T00:56:29.712Z,51.323425
2023-09-07T00:57:29.664Z,51.323433
2023-09-07T00:58:29.855Z,51.323410
2023-09-07T00:59:29.628Z,51.323418
2023-09-07T01:00:29.659Z,51.323425
2023-09-07T01:01:29.691Z,51.323433
2023-09-07T01:02:29.668Z,51.323437
2023-09-07T01:03:29.613Z,51.323429
2023-09-07T01:04:29.542Z,51.323414
2023-09-07T01:05:29.534Z,51.323429
2023-09-07T01:06:29.489Z,51.323437
2023-09-07T01:07:29.467Z,51.323425
2023-09-07T01:08:29.802Z,51.323406
2023-09-07T01:09:29.452Z,51.323421
2023-09-07T01:10:29.425Z,51.323402
2023-09-07T01:11:30.408Z,51.323364
2023-09-07T01:12:29.381Z,51.323410
2023-09-07T01:13:29.363Z,51.323418
2023-09-07T01:14:29.349Z,51.323441
2023-09-07T01:15:29.314Z,51.323410
2023-09-07T01:16:29.437Z,51.323410
2023-09-07T01:17:29.428Z,51.323410
2023-09-07T01:18:29.258Z,51.323418
2023-09-07T01:19:29.270Z,51.323441
2023-09-07T01:20:29.197Z,51.323421
2023-09-07T01:21:29.184Z,51.323421
2023-09-07T01:22:29.177Z,51.323399
2023-09-07T01:23:29.144Z,51.323414
2023-09-07T01:24:29.151Z,51.323410
2023-09-07T01:25:29.124Z,51.323433
2023-09-07T01:26:29.099Z,51.323410
2023-09-07T01:27:29.057Z,51.323414
2023-09-07T01:28:29.338Z,51.323421
2023-09-07T01:29:29.044Z,51.323437
2023-09-07T01:30:29.023Z,51.323429
2023-09-07T01:31:29.075Z,51.323433
2023-09-07T01:32:28.974Z,51.323421
2023-09-07T01:33:28.963Z,51.323418
2023-09-07T01:34:29.008Z,51.323399
2023-09-07T01:35:29.047Z,51.323437
2023-09-07T01:36:28.913Z,51.323406
2023-09-07T01:37:28.859Z,51.323429
2023-09-07T01:38:29.060Z,51.323429
2023-09-07T01:39:28.808Z,51.323433
2023-09-07T01:40:28.784Z,51.323425
2023-09-07T01:41:28.835Z,51.323425
2023-09-07T01:42:28.778Z,51.323414
2023-09-07T01:43:28.788Z,51.323418
2023-09-07T01:44:28.700Z,51.323391
2023-09-07T01:45:28.685Z,51.323406
2023-09-07T01:46:28.853Z,51.323418
2023-09-07T01:47:28.792Z,51.323421
2023-09-07T01:48:28.789Z,51.323437
2023-09-07T01:49:28.702Z,51.323429
2023-09-07T01:50:28.588Z,51.323444
2023-09-07T01:51:28.562Z,51.323410
2023-09-07T01:52:28.567Z,51.323383
2023-09-07T01:53:28.516Z,51.323387
2023-09-07T01:54:28.498Z,51.323399
2023-09-07T01:55:28.541Z,51.323425
2023-09-07T01:56:28.580Z,51.323460
2023-09-07T01:57:28.458Z,51.323448
2023-09-07T01:58:28.536Z,51.323463
2023-09-07T01:59:28.386Z,51.323444
2023-09-07T02:00:28.364Z,51.323444
2023-09-07T02:01:28.370Z,51.323433
2023-09-07T02:02:28.330Z,51.323425
2023-09-07T02:03:28.337Z,51.323406
2023-09-07T02:04:28.290Z,51.323433
2023-09-07T02:05:28.335Z,51.323456
2023-09-07T02:06:28.279Z,51.323460
2023-09-07T02:07:28.221Z,51.323418
2023-09-07T02:08:28.274Z,51.323421
2023-09-07T02:09:28.185Z,51.323402
2023-09-07T02:10:28.192Z,51.323410
2023-09-07T02:11:28.144Z,51.323429
2023-09-07T02:12:28.119Z,51.323441
2023-09-07T02:13:28.099Z,51.323456
2023-09-07T02:14:28.082Z,51.323414
2023-09-07T02:15:28.085Z,51.323421
2023-09-07T02:16:28.130Z,51.323421
2023-09-07T02:17:28.253Z,51.323391
2023-09-07T02:18:28.025Z,51.323391
2023-09-07T02:19:28.006Z,51.323429
2023-09-07T02:20:28.029Z,51.323425
2023-09-07T02:21:27.946Z,51.323433
2023-09-07T02:22:27.915Z,51.323444
2023-09-07T02:23:27.912Z,51.323448
2023-09-07T02:24:28.899Z,51.323433
2023-09-07T02:25:27.853Z,51.323414
2023-09-07T02:26:27.868Z,51.323425
2023-09-07T02:27:27.807Z,51.323406
2023-09-07T02:28:27.778Z,51.323433
2023-09-07T02:29:27.824Z,51.323444
2023-09-07T02:30:27.942Z,51.323429
2023-09-07T02:31:27.747Z,51.323452
2023-09-07T02:32:27.718Z,51.323444
2023-09-07T02:33:27.709Z,51.323444
2023-09-07T02:34:27.684Z,51.323433
2023-09-07T02:35:27.690Z,51.323425
2023-09-07T02:36:27.609Z,51.323425
2023-09-07T02:37:27.590Z,51.323433
2023-09-07T02:38:27.708Z,51.323383
2023-09-07T02:39:27.549Z,51.323471
2023-09-07T02:40:27.527Z,51.323452
2023-09-07T02:41:27.531Z,51.323418
2023-09-07T02:42:27.484Z,51.323437
2023-09-07T02:43:27.493Z,51.323425
2023-09-07T02:44:27.454Z,51.323437
2023-09-07T02:45:27.456Z,51.323444
2023-09-07T02:46:27.423Z,51.323429
2023-09-07T02:47:27.434Z,51.323433
2023-09-07T02:48:27.479Z,51.323437
2023-09-07T02:49:27.353Z,51.323429
2023-09-07T02:50:27.329Z,51.323429
2023-09-07T02:51:27.330Z,51.323410
2023-09-07T02:52:27.308Z,51.323429
2023-09-07T02:53:27.272Z,51.323429
2023-09-07T02:54:27.241Z,51.323425
2023-09-07T02:55:27.240Z,51.323433
2023-09-07T02:56:27.209Z,51.323421
2023-09-07T02:57:27.203Z,51.323444
2023-09-07T02:58:27.173Z,51.323441
2023-09-07T02:59:27.130Z,51.323448
2023-09-07T03:00:27.109Z,51.323429
2023-09-07T03:01:27.182Z,51.323418
2023-09-07T03:02:27.209Z,51.323429
2023-09-07T03:03:27.171Z,51.323410
2023-09-07T03:04:27.016Z,51.323402
2023-09-07T03:05:27.018Z,51.323418
2023-09-07T03:06:27.002Z,51.323429
2023-09-07T03:07:27.024Z,51.323433
2023-09-07T03:08:26.976Z,51.323433
2023-09-07T03:09:26.918Z,51.323391
2023-09-07T03:10:26.903Z,51.323421
2023-09-07T03:11:26.890Z,51.323441
2023-09-07T03:12:26.840Z,51.323441
2023-09-07T03:13:26.884Z,51.323429
2023-09-07T03:14:26.805Z,51.323429
2023-09-07T03:15:26.804Z,51.323395
2023-09-07T03:16:26.837Z,51.323421
2023-09-07T03:17:26.845Z,51.323429
2023-09-07T03:18:26.721Z,51.323425
2023-09-07T03:19:26.731Z,51.323410
2023-09-07T03:20:26.697Z,51.323395
2023-09-07T03:21:26.680Z,51.323437
2023-09-07T03:22:26.643Z,51.323387
2023-09-07T03:23:26.596Z,51.323345
2023-09-07T03:24:26.603Z,51.323456
2023-09-07T03:25:26.647Z,51.323429
2023-09-07T03:26:26.561Z,51.323437
2023-09-07T03:27:26.522Z,51.323441
2023-09-07T03:28:26.532Z,51.323399
2023-09-07T03:29:26.515Z,51.323380
2023-09-07T03:30:27.437Z,51.323414
2023-09-07T03:31:26.500Z,51.323444
2023-09-07T03:32:26.543Z,51.323437
2023-09-07T03:33:26.451Z,51.323402
2023-09-07T03:34:26.455Z,51.323402
2023-09-07T03:35:26.336Z,51.323452
2023-09-07T03:36:26.358Z,51.323429
2023-09-07T03:37:26.297Z,51.323425
2023-09-07T03:38:26.298Z,51.323433
2023-09-07T03:39:26.279Z,51.323444
2023-09-07T03:40:26.254Z,51.323433
2023-09-07T03:41:26.211Z,51.323395
2023-09-07T03:42:26.186Z,51.323402
2023-09-07T03:43:26.242Z,51.323421
2023-09-07T03:44:26.136Z,51.323410
2023-09-07T03:45:26.128Z,51.323433
2023-09-07T03:46:26.216Z,51.323410
2023-09-07T03:47:26.100Z,51.323421
2023-09-07T03:48:26.081Z,51.323402
2023-09-07T03:49:26.086Z,51.323421
2023-09-07T03:50:26.008Z,51.323410
2023-09-07T03:51:25.987Z,51.323406
2023-09-07T03:52:26.013Z,51.323418
2023-09-07T03:53:25.982Z,51.323456
2023-09-07T03:54:25.925Z,51.323456
2023-09-07T03:55:25.897Z,51.323460
2023-09-07T03:56:25.879Z,51.323441
2023-09-07T03:57:25.897Z,51.323448
2023-09-07T03:58:25.837Z,51.323444
2023-09-07T03:59:25.811Z,51.323441
2023-09-07T04:00:25.804Z,51.323460
2023-09-07T04:01:25.901Z,51.323444
2023-09-07T04:02:25.977Z,51.323441
2023-09-07T04:03:26.010Z,51.323425
2023-09-07T04:04:25.847Z,51.323421
2023-09-07T04:05:25.688Z,51.323406
2023-09-07T04:06:25.690Z,51.323437
2023-09-07T04:07:25.691Z,51.323452
2023-09-07T04:08:25.619Z,51.323460
2023-09-07T04:09:25.618Z,51.323456
2023-09-07T04:10:25.639Z,51.323452
2023-09-07T04:11:25.576Z,51.323444
2023-09-07T04:12:25.562Z,51.323452
2023-09-07T04:13:25.524Z,51.323460
2023-09-07T04:14:25.500Z,51.323444
2023-09-07T04:15:25.469Z,51.323429
2023-09-07T04:16:25.591Z,51.323460
2023-09-07T04:17:25.488Z,51.323452
2023-09-07T04:18:25.402Z,51.323456
2023-09-07T04:19:25.386Z,51.323448
2023-09-07T04:20:25.373Z,51.323418
2023-09-07T04:21:25.388Z,51.323441
2023-09-07T04:22:25.312Z,51.323429
2023-09-07T04:23:25.283Z,51.323418
2023-09-07T04:24:25.265Z,51.323383
2023-09-07T04:25:25.257Z,51.323395
2023-09-07T04:26:25.216Z,51.323441
2023-09-07T04:27:25.252Z,51.323410
2023-09-07T04:28:25.172Z,51.323433
2023-09-07T04:29:25.155Z,51.323406
2023-09-07T04:30:25.187Z,51.323437
2023-09-07T04:31:25.123Z,51.323441
2023-09-07T04:32:25.121Z,51.323444
2023-09-07T04:33:25.090Z,51.323418
2023-09-07T04:34:25.156Z,51.323399
2023-09-07T04:35:25.084Z,51.323406
2023-09-07T04:36:24.999Z,51.323429
2023-09-07T04:37:24.989Z,51.323429
2023-09-07T04:38:24.950Z,51.323410
2023-09-07T04:39:24.969Z,51.323463
2023-09-07T04:40:24.913Z,51.323452
2023-09-07T04:41:24.881Z,51.323399
2023-09-07T04:42:24.858Z,51.323460
2023-09-07T04:43:24.847Z,51.323448
2023-09-07T04:44:24.845Z,51.323421
2023-09-07T04:45:24.836Z,51.323425
2023-09-07T04:46:24.830Z,51.323429
2023-09-07T04:47:24.761Z,51.323437
2023-09-07T04:48:24.762Z,51.323452
2023-09-07T04:49:24.742Z,51.323460
2023-09-07T04:50:24.745Z,51.323421
2023-09-07T04:51:24.672Z,51.323429
2023-09-07T04:52:24.651Z,51.323444
2023-09-07T04:53:24.654Z,51.323475
2023-09-07T04:54:24.599Z,51.323456
2023-09-07T04:55:24.582Z,51.323406
2023-09-07T04:56:24.582Z,51.323380
2023-09-07T04:57:25.543Z,51.323399
2023-09-07T04:58:24.543Z,51.323421
2023-09-07T04:59:24.503Z,51.323421
2023-09-07T05:00:24.479Z,51.323433
2023-09-07T05:01:24.531Z,51.323418
2023-09-07T05:02:24.478Z,51.323410
2023-09-07T05:03:24.482Z,51.323444
2023-09-07T05:04:24.486Z,51.323460
2023-09-07T05:05:24.375Z,51.323467
2023-09-07T05:06:24.576Z,51.323418
2023-09-07T05:07:24.351Z,51.323441
2023-09-07T05:08:24.338Z,51.323463
2023-09-07T05:09:24.288Z,51.323433
2023-09-07T05:10:24.363Z,51.323421
2023-09-07T05:11:24.249Z,51.323444
2023-09-07T05:12:24.295Z,51.323460
2023-09-07T05:13:24.206Z,51.323460
2023-09-07T05:14:24.188Z,51.323395
2023-09-07T05:15:24.164Z,51.323448
2023-09-07T05:16:24.278Z,51.323444
2023-09-07T05:17:24.182Z,51.323444
2023-09-07T05:18:24.150Z,51.323471
2023-09-07T05:19:24.097Z,51.323467
2023-09-07T05:20:24.074Z,51.323494
2023-09-07T05:21:24.172Z,51.323494
2023-09-07T05:22:24.068Z,51.323479
2023-09-07T05:23:24.018Z,51.323441
2023-09-07T05:24:23.996Z,51.323471
2023-09-07T05:25:23.999Z,51.323509
2023-09-07T05:26:24.016Z,51.323471
2023-09-07T05:27:23.982Z,51.323433
2023-09-07T05:28:23.938Z,51.323463
2023-09-07T05:29:23.928Z,51.323425
2023-09-07T05:30:23.994Z,51.323471
2023-09-07T05:31:24.012Z,51.323448
2023-09-07T05:32:23.859Z,51.323441
2023-09-07T05:33:23.838Z,51.323425
2023-09-07T05:34:23.816Z,51.323444
2023-09-07T05:35:23.861Z,51.323456
2023-09-07T05:36:23.783Z,51.323479
2023-09-07T05:37:23.832Z,51.323475
2023-09-07T05:38:23.754Z,51.323471
2023-09-07T05:39:23.734Z,51.323456
2023-09-07T05:40:23.764Z,51.323460
2023-09-07T05:41:23.702Z,51.323463
2023-09-07T05:42:23.686Z,51.323479
2023-09-07T05:43:23.695Z,51.323471
2023-09-07T05:44:23.679Z,51.323471
2023-09-07T05:45:23.689Z,51.323456
2023-09-07T05:46:23.766Z,51.323433
2023-09-07T05:47:23.649Z,51.323437
2023-09-07T05:48:23.586Z,51.323433
2023-09-07T05:49:23.635Z,51.323410
2023-09-07T05:50:23.542Z,51.323441
2023-09-07T05:51:23.531Z,51.323433
2023-09-07T05:52:23.570Z,51.323433
2023-09-07T05:53:23.550Z,51.323490
2023-09-07T05:54:23.592Z,51.323460
2023-09-07T05:55:24.338Z,51.323414
2023-09-07T05:56:23.492Z,51.323421
2023-09-07T05:57:23.543Z,51.323452
2023-09-07T05:58:23.439Z,51.323444
2023-09-07T05:59:23.426Z,51.323410
2023-09-07T06:00:23.417Z,51.323444
2023-09-07T06:01:23.397Z,51.323479
2023-09-07T06:02:23.370Z,51.323452
2023-09-07T06:03:23.466Z,51.323452
2023-09-07T06:04:23.420Z,51.323448
2023-09-07T06:05:23.297Z,51.323410
2023-09-07T06:06:23.278Z,51.323421
2023-09-07T06:07:23.259Z,51.323433
2023-09-07T06:08:23.263Z,51.323402
2023-09-07T06:09:23.226Z,51.323433
2023-09-07T06:10:23.202Z,51.323414
2023-09-07T06:11:23.189Z,51.323414
2023-09-07T06:12:23.201Z,51.323433
2023-09-07T06:13:23.192Z,51.323433
2023-09-07T06:14:23.147Z,51.323414
2023-09-07T06:15:23.159Z,51.323414
2023-09-07T06:16:23.158Z,51.323391
2023-09-07T06:17:23.164Z,51.323414
2023-09-07T06:18:23.070Z,51.323433
2023-09-07T06:19:23.142Z,51.323383
2023-09-07T06:20:23.065Z,51.323391
2023-09-07T06:21:23.027Z,51.323364
2023-09-07T06:22:23.043Z,51.323387
2023-09-07T06:23:22.997Z,51.323391
2023-09-07T06:24:22.979Z,51.323402
2023-09-07T06:25:23.013Z,51.323345
2023-09-07T06:26:22.967Z,51.323376
2023-09-07T06:27:22.965Z,51.323391
2023-09-07T06:28:22.957Z,51.323418
2023-09-07T06:29:23.634Z,51.323437
2023-09-07T06:30:22.877Z,51.323425
2023-09-07T06:31:23.053Z,51.323406
2023-09-07T06:32:22.893Z,51.323395
2023-09-07T06:33:22.900Z,51.323353
2023-09-07T06:34:22.884Z,51.323372
2023-09-07T06:35:22.797Z,51.323372
2023-09-07T06:36:33.689Z,51.323353
2023-09-07T06:37:24.780Z,51.323402
2023-09-07T06:38:22.746Z,51.323402
2023-09-07T06:39:22.730Z,51.323372
2023-09-07T06:40:22.710Z,51.323380
2023-09-07T06:41:22.732Z,51.323391
2023-09-07T06:42:22.688Z,51.323391
2023-09-07T06:43:22.691Z,51.323380
2023-09-07T06:44:22.657Z,51.323387
2023-09-07T06:45:22.677Z,51.323372
2023-09-07T06:46:22.681Z,51.323387
2023-09-07T06:47:22.606Z,51.323372
2023-09-07T06:48:22.608Z,51.323376
2023-09-07T06:49:22.563Z,51.323383
2023-09-07T06:50:22.584Z,51.323383
2023-09-07T06:51:22.541Z,51.323387
2023-09-07T06:52:22.624Z,51.323380
2023-09-07T06:53:22.508Z,51.323395
2023-09-07T06:54:23.524Z,51.323399
2023-09-07T06:55:22.503Z,51.323387
2023-09-07T06:56:22.464Z,51.323376
2023-09-07T06:57:22.499Z,51.323364
2023-09-07T06:58:22.426Z,51.323395
2023-09-07T06:59:22.441Z,51.323399
2023-09-07T07:00:22.424Z,51.323410
2023-09-07T07:01:22.423Z,51.323364
2023-09-07T07:02:22.361Z,51.323376
2023-09-07T07:03:22.451Z,51.323376
2023-09-07T07:04:22.506Z,51.323387
2023-09-07T07:05:22.321Z,51.323387
2023-09-07T07:06:22.314Z,51.323387
2023-09-07T07:07:22.328Z,51.323383
2023-09-07T07:08:22.277Z,51.323391
2023-09-07T07:09:22.304Z,51.323391
2023-09-07T07:10:22.316Z,51.323376
2023-09-07T07:11:22.231Z,51.323376
2023-09-07T07:12:22.210Z,51.323368
2023-09-07T07:13:22.225Z,51.323345
2023-09-07T07:14:22.207Z,51.323345
2023-09-07T07:15:22.163Z,51.323357
2023-09-07T07:16:22.252Z,51.323360
2023-09-07T07:17:22.195Z,51.323334
2023-09-07T07:18:22.145Z,51.323353
2023-09-07T07:19:36.819Z,51.323360
2023-09-07T07:20:22.155Z,51.323353
2023-09-07T07:21:22.076Z,51.323353
2023-09-07T07:22:22.292Z,51.323360
2023-09-07T07:23:22.067Z,51.323353
2023-09-07T07:24:22.023Z,51.323341
2023-09-07T07:25:21.998Z,51.323338
2023-09-07T07:26:21.992Z,51.323338
2023-09-07T07:27:22.025Z,51.323383
2023-09-07T07:28:21.958Z,51.323353
2023-09-07T07:29:22.025Z,51.323334
2023-09-07T07:30:21.934Z,51.323326
2023-09-07T07:31:21.963Z,51.323345
2023-09-07T07:32:21.924Z,51.323334
2023-09-07T07:33:22.036Z,51.323326
2023-09-07T07:34:21.863Z,51.323330
2023-09-07T07:35:21.848Z,51.323318
2023-09-07T07:36:21.858Z,51.323341
2023-09-07T07:37:21.846Z,51.323334
2023-09-07T07:38:21.791Z,51.323296
2023-09-07T07:39:22.783Z,51.323315
2023-09-07T07:40:21.777Z,51.323322
2023-09-07T07:41:21.780Z,51.323322
2023-09-07T07:42:21.743Z,51.323330
2023-09-07T07:43:21.795Z,51.323307
2023-09-07T07:44:21.702Z,51.323292
2023-09-07T07:45:21.685Z,51.323322
2023-09-07T07:46:21.784Z,51.323338
2023-09-07T07:47:21.658Z,51.323380
2023-09-07T07:48:21.659Z,51.323376
2023-09-07T07:49:21.640Z,51.323376
2023-09-07T07:50:21.653Z,51.323399
2023-09-07T07:51:21.623Z,51.323406
2023-09-07T07:52:21.567Z,51.323402
2023-09-07T07:53:21.683Z,51.323414
2023-09-07T07:54:21.550Z,51.323387
2023-09-07T07:55:21.550Z,51.323338
2023-09-07T07:56:21.570Z,51.323380
2023-09-07T07:57:21.505Z,51.323387
2023-09-07T07:58:21.495Z,51.323380
2023-09-07T07:59:21.458Z,51.323383
2023-09-07T08:00:22.480Z,51.323376
2023-09-07T08:01:21.743Z,51.323353
2023-09-07T08:02:22.420Z,51.323338
2023-09-07T08:03:21.438Z,51.323334
2023-09-07T08:04:21.494Z,51.323338
2023-09-07T08:05:21.457Z,51.323372
2023-09-07T08:06:21.366Z,51.323376
2023-09-07T08:07:21.376Z,51.323376
2023-09-07T08:08:21.333Z,51.323391
2023-09-07T08:09:21.336Z,51.323406
2023-09-07T08:10:21.318Z,51.323315
2023-09-07T08:11:21.277Z,51.323364
2023-09-07T08:12:21.263Z,51.323360
2023-09-07T08:13:21.253Z,51.323368
2023-09-07T08:14:21.297Z,51.323399
2023-09-07T08:15:21.210Z,51.323406
2023-09-07T08:16:21.288Z,51.323418
2023-09-07T08:17:21.360Z,51.323429
2023-09-07T08:18:21.300Z,51.323353
2023-09-07T08:19:21.241Z,51.323334
2023-09-07T08:20:21.154Z,51.323360
2023-09-07T08:21:21.115Z,51.323387
2023-09-07T08:22:21.139Z,51.323338
2023-09-07T08:23:21.124Z,51.323338
2023-09-07T08:24:21.074Z,51.323414
2023-09-07T08:25:21.111Z,51.323418
2023-09-07T08:26:21.049Z,51.323391
2023-09-07T08:27:21.044Z,51.323399
2023-09-07T08:28:21.039Z,51.323380
2023-09-07T08:29:20.996Z,51.323376
2023-09-07T08:30:20.979Z,51.323406
2023-09-07T08:31:21.008Z,51.323425
2023-09-07T08:32:21.039Z,51.323414
2023-09-07T08:33:21.065Z,51.323421
2023-09-07T08:34:20.913Z,51.323406
2023-09-07T08:35:20.954Z,51.323410
2023-09-07T08:36:20.877Z,51.323410
2023-09-07T08:37:23.750Z,51.323387
2023-09-07T08:38:20.850Z,51.323406
2023-09-07T08:39:20.848Z,51.323414
2023-09-07T08:40:20.829Z,51.323395
2023-09-07T08:41:20.801Z,51.323414
2023-09-07T08:42:20.824Z,51.323429
2023-09-07T08:43:20.774Z,51.323421
2023-09-07T08:44:20.759Z,51.323399
2023-09-07T08:45:20.802Z,51.323421
2023-09-07T08:46:20.784Z,51.323406
2023-09-07T08:47:20.730Z,51.323444
2023-09-07T08:48:20.777Z,51.323437
2023-09-07T08:49:20.672Z,51.323444
2023-09-07T08:50:20.679Z,51.323425
2023-09-07T08:51:20.811Z,51.323425
2023-09-07T08:52:20.688Z,51.323429
2023-09-07T08:53:20.610Z,51.323441
2023-09-07T08:54:20.618Z,51.323433
2023-09-07T08:55:20.577Z,51.323414
2023-09-07T08:56:20.642Z,51.323421
2023-09-07T08:57:20.544Z,51.323425
2023-09-07T08:58:20.513Z,51.323418
2023-09-07T08:59:21.510Z,51.323429
2023-09-07T09:00:20.512Z,51.323437
2023-09-07T09:01:20.582Z,51.323433
2023-09-07T09:02:20.528Z,51.323425
2023-09-07T09:03:20.516Z,51.323414
2023-09-07T09:04:20.537Z,51.323421
2023-09-07T09:05:20.438Z,51.323402
2023-09-07T09:06:20.395Z,51.323429
2023-09-07T09:07:20.473Z,51.323418
2023-09-07T09:08:20.490Z,51.323421
2023-09-07T09:09:20.478Z,51.323418
2023-09-07T09:10:20.346Z,51.323421
2023-09-07T09:11:20.296Z,51.323414
2023-09-07T09:12:20.280Z,51.323414
2023-09-07T09:13:20.270Z,51.323429
2023-09-07T09:14:20.283Z,51.323421
2023-09-07T09:15:20.259Z,51.323406
2023-09-07T09:16:20.269Z,51.323402
2023-09-07T09:17:20.205Z,51.323414
2023-09-07T09:18:20.295Z,51.323414
2023-09-07T09:19:20.183Z,51.323414
2023-09-07T09:20:20.152Z,51.323414
2023-09-07T09:21:20.120Z,51.323414
2023-09-07T09:22:20.106Z,51.323414
2023-09-07T09:23:20.134Z,51.323437
2023-09-07T09:24:20.103Z,51.323429
2023-09-07T09:25:20.057Z,51.323425
2023-09-07T09:26:20.035Z,51.323418
2023-09-07T09:27:20.024Z,51.323418
2023-09-07T09:28:20.136Z,51.323410
2023-09-07T09:29:19.981Z,51.323383
2023-09-07T09:30:19.962Z,51.323399
2023-09-07T09:31:20.016Z,51.323421
2023-09-07T09:32:19.928Z,51.323395
2023-09-07T09:33:19.969Z,51.323414
2023-09-07T09:34:19.913Z,51.323421
2023-09-07T09:35:19.882Z,51.323391
2023-09-07T09:36:19.889Z,51.323402
2023-09-07T09:37:19.866Z,51.323406
2023-09-07T09:38:19.859Z,51.323391
2023-09-07T09:39:19.806Z,51.323410
2023-09-07T09:40:19.927Z,51.323414
2023-09-07T09:41:19.769Z,51.323433
2023-09-07T09:42:19.782Z,51.323433
2023-09-07T09:43:19.733Z,51.323444
2023-09-07T09:44:19.716Z,51.323467
2023-09-07T09:45:19.698Z,51.323433
2023-09-07T09:46:19.708Z,51.323421
2023-09-07T09:47:19.835Z,51.323418
2023-09-07T09:48:19.736Z,51.323406
2023-09-07T09:49:19.636Z,51.323410
2023-09-07T09:50:19.688Z,51.323437
2023-09-07T09:51:19.617Z,51.323433
2023-09-07T09:52:19.612Z,51.323425
2023-09-07T09:53:19.671Z,51.323421
2023-09-07T09:54:19.576Z,51.323414
2023-09-07T09:55:19.529Z,51.323429
2023-09-07T09:56:19.557Z,51.323437
2023-09-07T09:57:19.523Z,51.323421
2023-09-07T09:58:19.478Z,51.323414
2023-09-07T09:59:19.517Z,51.323414
2023-09-07T10:00:19.458Z,51.323433
2023-09-07T10:01:19.503Z,51.323437
2023-09-07T10:02:19.478Z,51.323399
2023-09-07T10:03:19.439Z,51.323414
2023-09-07T10:04:19.378Z,51.323395
2023-09-07T10:05:19.376Z,51.323418
2023-09-07T10:06:19.367Z,51.323402
2023-09-07T10:07:19.389Z,51.323414
2023-09-07T10:08:19.367Z,51.323418
2023-09-07T10:09:19.305Z,51.323421
2023-09-07T10:10:19.294Z,51.323410
2023-09-07T10:11:19.278Z,51.323421
2023-09-07T10:12:19.243Z,51.323418
2023-09-07T10:13:19.208Z,51.323414
2023-09-07T10:14:19.245Z,51.323421
2023-09-07T10:15:19.263Z,51.323410
2023-09-07T10:16:19.216Z,51.323425
2023-09-07T10:17:19.165Z,51.323425
2023-09-07T10:18:19.159Z,51.323429
2023-09-07T10:19:19.096Z,51.323448
2023-09-07T10:20:19.222Z,51.323441
2023-09-07T10:21:19.069Z,51.323437
2023-09-07T10:22:19.054Z,51.323406
2023-09-07T10:23:19.047Z,51.323406
2023-09-07T10:24:19.041Z,51.323437
2023-09-07T10:25:19.032Z,51.323414
2023-09-07T10:26:19.008Z,51.323437
2023-09-07T10:27:18.956Z,51.323410
2023-09-07T10:28:18.934Z,51.323421
2023-09-07T10:29:18.957Z,51.323421
2023-09-07T10:30:18.929Z,51.323399
2023-09-07T10:31:18.936Z,51.323383
2023-09-07T10:32:20.652Z,51.323376
2023-09-07T10:33:20.886Z,51.323380
2023-09-07T10:34:19.848Z,51.323402
2023-09-07T10:35:19.824Z,51.323395
2023-09-07T10:36:18.796Z,51.323399
2023-09-07T10:37:18.790Z,51.323410
2023-09-07T10:38:18.792Z,51.323421
2023-09-07T10:39:19.805Z,51.323395
2023-09-07T10:40:19.861Z,51.323414
2023-09-07T10:41:18.781Z,51.323414
2023-09-07T10:42:18.680Z,51.323414
2023-09-07T10:43:18.704Z,51.323425
2023-09-07T10:44:18.647Z,51.323433
2023-09-07T10:45:18.746Z,51.323414
2023-09-07T10:46:18.632Z,51.323421
2023-09-07T10:47:18.652Z,51.323406
2023-09-07T10:48:18.710Z,51.323414
2023-09-07T10:49:18.559Z,51.323410
2023-09-07T10:50:18.542Z,51.323395
2023-09-07T10:51:18.531Z,51.323399
2023-09-07T10:52:18.673Z,51.323418
2023-09-07T10:53:18.488Z,51.323425
2023-09-07T10:54:18.488Z,51.323410
2023-09-07T10:55:18.514Z,51.323437
2023-09-07T10:56:18.522Z,51.323433
2023-09-07T10:57:18.496Z,51.323406
2023-09-07T10:58:21.598Z,51.323410
2023-09-07T10:59:20.421Z,51.323414
2023-09-07T11:00:18.365Z,51.323399
2023-09-07T11:01:18.429Z,51.323395
2023-09-07T11:02:18.424Z,51.323425
2023-09-07T11:03:18.414Z,51.323406
2023-09-07T11:04:18.607Z,51.323402
2023-09-07T11:05:18.274Z,51.323418
2023-09-07T11:06:18.293Z,51.323402
2023-09-07T11:07:18.259Z,51.323421
2023-09-07T11:08:18.233Z,51.323498
2023-09-07T11:09:18.249Z,51.323483
2023-09-07T11:10:18.197Z,51.323441
2023-09-07T11:11:18.201Z,51.323380
2023-09-07T11:12:18.158Z,51.323433
2023-09-07T11:13:18.130Z,51.323410
2023-09-07T11:14:18.159Z,51.323391
2023-09-07T11:15:18.221Z,51.323425
2023-09-07T11:16:18.165Z,51.323437
2023-09-07T11:17:18.064Z,51.323406
2023-09-07T11:18:18.061Z,51.323376
2023-09-07T11:19:18.080Z,51.323341
2023-09-07T11:20:18.049Z,51.323376
2023-09-07T11:21:18.023Z,51.323357
2023-09-07T11:22:18.017Z,51.323372
2023-09-07T11:23:17.960Z,51.323395
2023-09-07T11:24:17.939Z,51.323353